2008 Tropical Cyclone ANIKA (2008323S08089)


IBTrACS version v04r00. Visit IBTrACS website for data access.
Please direct all questions to the IBTrACS Q and A forum

Storm track - Intensity - Wind Radii - Intensity Data - Source Data - All data

Summary Information

Satellite image near maximum intensity
Storm ID 2008323S08089
Start Nov 17 12Z
Max Intensity 60 kt (Nov 20 00Z), 978 mb (Nov 19 22Z)
End Nov 22 00Z
ATCF IDs ,SH022009
Track status Best track data.

Storm track plot

Map of storm track

Intensity plots

Map of storm track

Radial wind information

Map of storm track

Position and Intensity Table

BASIN ISO_TIME_________ NATURE LAT LON WMO WIND WMO PRES USA WIND USA PRES BOM WIND BOM PRES
degrees north degrees east kts mb kts mb kts mb
SI 2008-11-17 12:00:00 NR -8.10 89.40 20 1005
SI 15:00:00 NR -8.03 89.22 22 1004
SI 15:54:00 NR -8.10 89.40 23 1004
SI 18:00:00 NR -8.40 90.10 25 1004 25 1004
SI 19:14:00 NR -8.50 90.10 25 1004
SI 21:00:00 NR -8.60 90.55 25 1004
SI 22:24:00 NR -8.70 91.00 25 1004
SI 2008-11-18 00:00:00 NR -8.88 91.30 25 1004 20 1007 25 1004
SI 03:00:00 NR -9.12 91.89 20 1007 25 1004
SI 05:30:00 NR -9.42 92.40 20 1007 25 1004
SI 06:00:00 NR -9.50 92.50 25 1004 20 1007 25 1004
SI 07:30:00 NR -9.68 92.81 22 1005 25 1004
SI 08:17:00 NR -9.78 92.94 23 1004 25 1004
SI 09:00:00 NR -9.86 93.12 25 1003 25 1004
SI 11:24:00 NR -10.08 93.73 29 1000 25 1004
SI 11:57:00 NR -10.10 93.79 29 1000 25 1004
SI 12:00:00 TS -10.10 93.80 25 1004 30 1000 25 1004
SI 13:57:00 TS -10.21 94.28 30 1000 26 1002
SI 15:00:00 TS -10.27 94.53 30 1000 27 1002
SI 18:00:00 TS -10.45 95.25 30 1000 30 1000 30 1000
SI 21:00:00 TS -10.67 96.01 32 998 35 997
SI 22:23:00 TS -10.74 96.33 33 997 37 996
SI 23:04:00 TS -10.76 96.48 34 996 38 995
SI 2008-11-19 00:00:00 TS -10.85 96.65 40 995 35 996 40 995
SI 02:30:00 TS -11.10 97.10 37 994 40 995
SI 03:00:00 TS -11.15 97.22 37 994 40 995
SI 06:00:00 TS -11.40 97.85 40 995 40 993 40 995
SI 07:22:00 TS -11.46 97.94 41 992 41 994
SI 09:00:00 TS -11.54 98.24 42 991 42 993
SI 11:10:00 TS -11.75 98.81 44 989 44 992
SI 11:39:00 TS -11.83 98.94 44 989 44 992
SI 12:00:00 TS -11.90 99.05 45 992 45 989 45 992
SI 15:00:00 TS -12.35 99.77 50 985 47 991
SI 18:00:00 TS -12.70 100.30 50 990 55 982 50 990
SI 19:02:00 TS -12.83 100.50 55 981 50 990
SI 21:00:00 TS -13.16 100.87 57 980 50 990
SI 22:47:00 TS -13.47 101.23 58 978 50 990
SI 2008-11-20 00:00:00 TS -13.65 101.50 50 990 60 978 50 990
SI 00:54:00 TS -13.82 101.72 59 978 50 990
SI 03:00:00 TS -14.18 102.16 57 980 50 990
SI 06:00:00 TS -14.60 102.75 50 990 55 982 50 990
SI 06:27:00 TS -14.66 102.85 54 982 50 990
SI 07:16:00 TS -14.79 102.99 53 982 50 990
SI 09:00:00 TS -14.96 103.40 52 983 50 990
SI 10:57:00 TS -15.11 103.85 50 984 50 990
SI 11:20:00 TS -15.15 103.91 50 984 50 990
SI 12:00:00 TS -15.20 104.05 50 990 50 985 50 990
SI 15:00:00 TS -15.32 104.59 42 990 45 993
SI 18:00:00 TS -15.40 105.10 40 996 35 996 40 996
SI 21:00:00 TS -15.53 105.64 32 998 35 999
SI 22:08:00 TS -15.63 105.93 31 998 33 1000
SI 23:30:00 TS -15.82 106.37 30 999 30 1001
SI 2008-11-21 00:00:00 TS -15.90 106.45 30 1002 30 1000 30 1002
SI 01:30:00 TS -16.09 106.75 28 1001 28 1002
SI 03:00:00 TS -16.21 107.00 27 1002 27 1003
SI 05:30:00 TS -16.43 107.41 25 1003 25 1003
SI 06:00:00 TS -16.50 107.50 25 1004 25 1004 25 1004
SI 07:30:00 TS -16.64 107.73 25 1004 25 1004
SI 09:00:00 TS -16.76 107.95 25 1004 25 1004
SI 10:43:00 TS -16.86 108.23 25 1004 25 1004
SI 11:23:00 TS -16.88 108.36 25 1004 25 1004
SI 12:00:00 ET -16.88 108.44 25 1004 25 1004 25 1004
SI 15:00:00 NR -16.94 108.90 25 1004
SI 18:00:00 NR -17.00 109.40 25 1004 25 1004
SI 21:00:00 NR -17.13 110.02 25 1004
SI 2008-11-22 00:00:00 NR -17.20 110.50 25 1004 25 1004
SI 00:30:00 NR -17.20 110.55

Source Information

Agency Information
USA bsh022009.txt
TOKYO
CMA
HKO
NEWDELHI
REUNION
BOM IDCKMSTM0S.csv:Line=23342:Anika
NADI
WELLINGTON
DS824
TD9636
TD9635
NEUMANN
MLC

All available IBTrACS Data

SEASON BASIN SUBBASIN ISO_TIME_________ NATURE LAT LON WMO WIND WMO PRES WMO AGENCY DIST2LAND LANDFALL IFLAG USA AGENCY USA ATCF_ID USA LAT USA LON USA STATUS USA WIND USA PRES USA SSHS USA R34 USA R50 USA POCI USA ROCI USA RMW BOM LAT BOM LON BOM TYPE BOM WIND BOM PRES BOM TNUM BOM CI BOM RMW BOM R34 BOM R50 BOM POCI BOM POS_METHOD BOM PRES_METHOD BOM GUST BOM GUST_PER STORM SPEED STORM DIR
Year degrees north degrees east kts mb km km degrees north degrees east kts mb 1 nmile nmile mb nmile nmile degrees north degrees east kts mb 1 1 nmile nmile nmile mb kts second kts degrees
2009 SI MM 2008-11-17 12:00:00 NR -8.10 89.40 1274 1274 ______O_______ -1 -8.10 89.40 20 20 1005 1.00 1.00 1008 3 5 45 45 4 291
2009 SI MM 15:00:00 NR -8.03 89.22 1286 1274 ______P_______ -1 -8.03 89.22 20 22 1004 1008 0 0
2009 SI MM 15:54:00 NR -8.10 89.40 1274 1230 ______I_______ -1 -8.10 89.40 20 23 1004 1008 3 45 45 19 113
2009 SI WA 18:00:00 NR -8.40 90.10 25 1004 bom 1230 1230 ______O_______ -1 -8.40 90.10 20 25 1004 1.50 1.50 1008 3 5 45 45 14 120
2009 SI WA 19:14:00 NR -8.50 90.10 bom 1237 1209 ______I_______ -1 -8.50 90.10 20 25 1004 1008 3 45 45 10 114
2009 SI WA 21:00:00 NR -8.60 90.55 1209 1175 ______P_______ -1 -8.60 90.55 20 25 1004 1008 17 103
2009 SI WA 22:24:00 NR -8.70 91.00 bom 1175 1165 ______I_______ -1 -8.70 91.00 20 25 1004 1008 3 45 45 16 111
2009 SI WA 2008-11-18 00:00:00 NR -8.88 91.30 25 1004 bom 1165 1135 O_____O_______ jtwc_sh SH022009 -8.80 91.30 DB 20 1007 -3 -8.90 91.30 20 25 1004 2.00 2.00 1008 3 5 45 45 13 116
2009 SI WA 03:00:00 NR -9.12 91.89 1135 1122 P_____P_______ SH022009 -9.15 91.89 DB 20 1007 -3 -9.11 91.89 20 25 1004 1008 13 116
2009 SI WA 05:30:00 NR -9.42 92.40 bom 1123 1123 P_____I_______ SH022009 -9.44 92.40 DB 20 1007 -3 -9.40 92.40 20 25 1004 1008 3 45 45 14 122
2009 SI WA 06:00:00 NR -9.50 92.50 25 1004 bom 1125 1118 O_____O_______ jtwc_sh SH022009 -9.50 92.50 DB 20 1007 -3 -9.50 92.50 20 25 1004 2.00 2.00 1008 3 5 45 45 15 123
2009 SI WA 07:30:00 NR -9.68 92.81 bom 1122 1115 P_____I_______ SH022009 -9.67 92.81 DB 22 1005 -3 -9.70 92.80 20 25 1004 1008 3 45 45 14 123
2009 SI WA 08:17:00 NR -9.78 92.94 bom 1124 1111 P_____I_______ SH022009 -9.75 92.98 DB 23 1004 -3 -9.80 92.90 20 25 1004 1008 3 45 45 14 120
2009 SI WA 09:00:00 NR -9.86 93.12 1120 1099 P_____P_______ SH022009 -9.83 93.14 DB 25 1003 -3 -9.89 93.10 20 25 1004 1008 16 111
2009 SI WA 11:24:00 NR -10.08 93.73 bom 1103 1097 P_____I_______ SH022009 -10.05 93.66 DB 29 1000 -3 -10.10 93.80 20 25 1004 1008 3 45 45 14 109
2009 SI WA 11:57:00 NR -10.10 93.79 bom 1097 634 P_____I_______ SH022009 -10.10 93.79 DB 29 1000 -3 -10.10 93.80 20 25 1004 1008 3 45 45 7 110
2009 SI WA 12:00:00 TS -10.10 93.80 25 1004 bom 1097 1085 O_____O_______ jtwc_sh SH022009 -10.10 93.80 TD 30 1000 -1 1008 170 50 -10.10 93.80 20 25 1004 2.00 2.00 1008 3 5 45 45 15 103
2009 SI WA 13:57:00 TS -10.21 94.28 bom 1079 1074 P_____I_______ SH022009 -10.22 94.25 TD 30 1000 -1 1008 170 50 -10.20 94.30 20 26 1002 1007 3 45 45 15 103
2009 SI WA 15:00:00 TS -10.27 94.53 1079 1055 P_____P_______ SH022009 -10.26 94.50 TD 30 1000 -1 1008 170 50 -10.27 94.56 20 27 1002 1007 15 104
2009 SI WA 18:00:00 TS -10.45 95.25 30 1000 bom 1051 1022 O_____O_______ jtwc_sh SH022009 -10.40 95.20 TD 30 1000 -1 1008 170 50 -10.50 95.30 20 30 1000 2.50 2.50 1006 3 5 45 45 15 105
2009 SI WA 21:00:00 TS -10.67 96.01 1022 1000 P_____P_______ SH022009 -10.58 95.87 TD 32 998 -1 1008 170 50 -10.75 96.15 20 35 997 1006 15 105
2009 SI WA 22:23:00 TS -10.74 96.33 bom 1000 993 P_____I_______ SH022009 -10.68 96.16 TD 33 997 -1 1008 170 50 -10.80 96.50 20 37 996 1006 3 14 102
2009 SI WA 23:04:00 TS -10.76 96.48 bom 994 987 P_____I_______ SH022009 -10.73 96.31 TD 34 996 0 1008 170 50 -10.80 96.65 20 38 995 1006 3 12 109
2009 SI WA 2008-11-19 00:00:00 TS -10.85 96.65 40 995 bom 980 976 O_____O_______ jtwc_sh SH022009 -10.80 96.50 TS 35 996 0 1008 170 50 -10.90 96.80 30 40 995 3.00 3.00 24 50, ,70,79 1006 3 5 55 55 12 119
2009 SI WA 02:30:00 TS -11.10 97.10 bom 977 970 P_____I_______ SH022009 -10.99 97.00 TS 37 994 0 1007 170 45 -11.20 97.20 30 40 995 24 50, ,70,75 1006 3 13 118
2009 SI WA 03:00:00 TS -11.15 97.22 970 953 P_____P_______ SH022009 -11.03 97.10 TS 37 994 0 1007 170 45 -11.26 97.33 30 40 995 24 50, ,70,74 1006 14 112
2009 SI WA 06:00:00 TS -11.40 97.85 40 995 bom 948 948 O_____O_______ jtwc_sh SH022009 -11.30 97.70 TS 40 993 0 1006 170 40 -11.50 98.00 30 40 995 3.00 3.00 24 50,30,70,70 1006 3 5 55 55 11 114
2009 SI WA 07:22:00 TS -11.46 97.94 bom 957 931 P_____I_______ SH022009 -11.42 97.99 TS 41 992 0 1006 170 38 -11.50 97.90 30 41 994 21 50,39,72,70 1006 3 55 55 8 110
2009 SI WA 09:00:00 TS -11.54 98.24 931 891 P_____P_______ SH022009 -11.58 98.34 TS 42 991 0 1006 170 37 -11.50 98.14 30 42 993 19 50,50,74,70 1006 14 109
2009 SI WA 11:10:00 TS -11.75 98.81 bom 898 890 P_____I_______ SH022009 -11.80 98.82 TS 44 989 0 1006 170 35 -11.70 98.80 30 44 992 16 50,64,77,70 1006 3 64 64 17 113
2009 SI WA 11:39:00 TS -11.83 98.94 bom 890 888 P_____I_______ SH022009 -11.86 98.92 TS 44 989 0 1006 170 35 -11.80 98.95 30 44 992 15 50,67,78,70 1006 3 64 64 20 122
2009 SI WA 12:00:00 TS -11.90 99.05 45 992 bom 880 862 O_____O_______ jtwc_sh SH022009 -11.90 99.00 TS 45 989 0 45,40,40,45 1006 170 35 -11.90 99.10 30 45 992 3.00 3.00 15 50,70,79,70 1006 3 5 64 64 17 123
2009 SI WA 15:00:00 TS -12.35 99.77 862 848 P_____P_______ SH022009 -12.27 99.66 TS 50 985 0 47,37,32,40 1006 170 35 -12.44 99.88 30 47 991 15 64,74,79,74 1007 15 123
2009 SI WA 18:00:00 TS -12.70 100.30 50 990 bom 851 844 O_____O_______ jtwc_sh SH022009 -12.70 100.30 TS 55 982 0 50,35,25,35 1006 170 35 -12.70 100.30 30 50 990 3.50 3.50 15 79,79,79,79 1008 3 5 69 69 13 124
2009 SI WA 19:02:00 TS -12.83 100.50 bom 846 849 P_____I_______ SH022009 -12.86 100.51 TS 55 981 0 50,35,26,37 1006 170 30 -12.80 100.50 30 50 990 15 79,79,79,79 1008 3 69 69 14 129
2009 SI WA 21:00:00 TS -13.16 100.87 857 851 P_____P_______ SH022009 -13.19 100.90 TS 57 980 0 50,35,30,42 1006 170 22 -13.12 100.85 30 50 990 15 79,79,79,79 1008 15 132
2009 SI WA 22:47:00 TS -13.47 101.23 bom 868 862 P_____I_______ SH022009 -13.50 101.25 TS 58 978 0 50,35,32,46 1006 170 15 -13.44 101.20 30 50 990 15 79,79,79,79 1008 3 69 69 16 129
2009 SI WA 2008-11-20 00:00:00 TS -13.65 101.50 50 990 bom 862 867 O_____O_______ jtwc_sh SH022009 -13.70 101.50 TS 60 978 0 50,35,35,50 10,10,10,10 1006 170 10 -13.60 101.50 30 50 990 3.50 3.50 15 79,79,79,79 1008 3 5 69 69 17 126
2009 SI WA 00:54:00 TS -13.82 101.72 bom 872 872 P_____I_______ SH022009 -13.84 101.69 TS 59 978 0 50,38,35,48 1006 172 10 -13.80 101.75 30 50 990 15 79,79,79,75 1008 3 69 69 17 130
2009 SI WA 03:00:00 TS -14.18 102.16 889 887 P_____P_______ SH022009 -14.17 102.14 TS 57 980 0 52,47,37,45 1007 177 12 -14.19 102.18 30 50 990 15 79,79,79,69 1008 15 128
2009 SI WA 06:00:00 TS -14.60 102.75 50 990 bom 897 897 O_____O_______ jtwc_sh SH022009 -14.60 102.80 TS 55 982 0 55,60,40,40 1008 185 15 -14.60 102.70 30 50 990 3.50 3.50 15 79,79,79,59 ,19,19, 1008 3 5 69 69 14 125
2009 SI WA 06:27:00 TS -14.66 102.85 bom 902 902 P_____I_______ SH022009 -14.67 102.90 TS 54 982 0 55,60,40,40 1008 185 15 -14.65 102.80 30 50 990 15 75,79,78,57 ,19, , 1008 3 69 69 14 129
2009 SI WA 07:16:00 TS -14.79 102.99 bom 908 901 P_____I_______ SH022009 -14.78 103.08 TS 53 982 0 55,60,41,40 1008 185 15 -14.80 102.90 30 50 990 15 70,79,77,54 ,20, , 1008 3 69 69 14 120
2009 SI WA 09:00:00 TS -14.96 103.40 911 900 P_____P_______ SH022009 -15.01 103.47 TS 52 983 0 55,60,42,40 1008 185 15 -14.91 103.32 30 50 990 17 59,79,74,49 ,21, , 1008 14 111
2009 SI WA 10:57:00 TS -15.11 103.85 bom 907 904 P_____I_______ SH022009 -15.22 103.89 TS 50 984 0 55,60,44,40 1008 185 15 -15.00 103.80 30 50 990 18 45,79,71,42 ,23, , 1008 3 69 69 14 111
2009 SI WA 11:20:00 TS -15.15 103.91 bom 915 911 P_____I_______ SH022009 -15.25 103.97 TS 50 984 0 55,60,44,40 1008 185 15 -15.05 103.85 30 50 990 18 43,79,70,41 ,23, , 1008 3 69 69 12 115
2009 SI WA 12:00:00 TS -15.20 104.05 50 990 bom 908 905 O_____O_______ jtwc_sh SH022009 -15.30 104.10 TS 50 985 0 55,60,45,40 1008 185 15 -15.10 104.00 30 50 990 3.00 3.50 19 39,79,70,39 ,24, , 1008 3 5 69 69 11 104
2009 SI WA 15:00:00 TS -15.32 104.59 906 901 P_____P_______ SH022009 -15.35 104.59 TS 42 990 0 55,60,45,40 1008 185 15 -15.29 104.59 30 45 993 24 39,59,60,39 1008 10 101
2009 SI WA 18:00:00 TS -15.40 105.10 40 996 bom 907 901 O_____O_______ jtwc_sh SH022009 -15.40 105.10 TS 35 996 0 55,60,45,40 1008 185 15 -15.40 105.10 30 40 996 2.50 3.00 30 39,39,50,39 1008 3 5 55 55 10 102
2009 SI WA 21:00:00 TS -15.53 105.64 905 902 P_____P_______ SH022009 -15.72 105.79 TS 32 998 -1 1008 185 15 -15.33 105.50 30 35 999 1008 12 106
2009 SI WA 22:08:00 TS -15.63 105.93 bom 908 908 P_____I_______ SH022009 -15.87 106.07 TS 31 998 -1 1008 185 15 -15.40 105.80 30 33 1000 1008 3 49 49 18 113
2009 SI WA 23:30:00 TS -15.82 106.37 bom 919 919 P_____I_______ SH022009 -16.04 106.39 TS 30 999 -1 1008 185 15 -15.60 106.35 30 30 1001 1008 3 49 49 18 118
2009 SI WA 2008-11-21 00:00:00 TS -15.90 106.45 30 1002 bom 929 929 O_____O_______ jtwc_sh SH022009 -16.10 106.50 TD 30 1000 -1 1008 185 15 -15.70 106.40 20 30 1002 2.00 2.50 1008 3 5 45 45 14 127
2009 SI WA 01:30:00 TS -16.09 106.75 bom 945 945 P_____I_______ SH022009 -16.24 106.80 TD 28 1001 -1 -15.95 106.70 20 28 1002 1008 3 45 45 12 120
2009 SI WA 03:00:00 TS -16.21 107.00 952 926 P_____P_______ SH022009 -16.36 107.08 TD 27 1002 -1 -16.07 106.93 20 27 1003 1008 11 118
2009 SI WA 05:30:00 TS -16.43 107.41 bom 926 911 P_____I_______ SH022009 -16.56 107.52 TD 25 1003 -1 -16.30 107.30 20 25 1003 1008 3 45 45 11 121
2009 SI WA 06:00:00 TS -16.50 107.50 25 1004 bom 911 887 O_____O_______ jtwc_sh SH022009 -16.60 107.60 TD 25 1004 -1 -16.40 107.40 20 25 1004 1.50 2.00 1008 3 5 45 45 11 125
2009 SI WA 07:30:00 TS -16.64 107.73 bom 887 864 P_____I_______ SH022009 -16.74 107.85 TD 25 1004 -1 -16.55 107.60 20 25 1004 1008 3 45 45 10 121
2009 SI WA 09:00:00 TS -16.76 107.95 849 826 P_____P_______ SH022009 -16.89 108.10 TD 25 1004 -1 -16.63 107.80 20 25 1004 1008 10 114
2009 SI WA 10:43:00 TS -16.86 108.23 bom 826 810 P_____I_______ SH022009 -17.06 108.39 TD 25 1004 -1 -16.70 108.12 20 25 1004 1008 3 45 45 10 107
2009 SI WA 11:23:00 TS -16.88 108.36 bom 810 810 P_____I_______ SH022009 -17.13 108.50 TD 25 1004 -1 -16.75 108.29 20 25 1004 1008 3 45 45 9 97
2009 SI WA 12:00:00 ET -16.88 108.44 25 1004 bom 810 773 O_____O_______ jtwc_sh SH022009 -17.20 108.60 EX 25 1004 -4 -16.80 108.40 20 25 1004 1.00 1.50 1008 3 5 45 45 9 97
2009 SI WA 15:00:00 NR -16.94 108.90 773 729 ______P_______ SH022009 EX -4 -16.94 108.90 20 25 1004 1008 9 97
2009 SI WA 18:00:00 NR -17.00 109.40 25 1004 bom 729 681 ______O_______ -1 -17.00 109.40 20 25 1004 1.00 1.50 1008 3 5 45 45 11 100
2009 SI WA 21:00:00 NR -17.13 110.02 681 640 ______P_______ -1 -17.13 110.02 20 25 1004 1008 11 101
2009 SI WA 2008-11-22 00:00:00 NR -17.20 110.50 25 1004 bom 640 634 ______O_______ -1 -17.20 110.50 20 25 1004 1.00 1.50 1008 3 5 45 45 9 98
2009 SI WA 00:30:00 NR -17.20 110.55 bom 634 ______O_______ -1 -17.20 110.55 20 3 6 90